Time;durP1;ratioP1;P1;durP2;ratioP2;P2;SDS_P1;SDS_P2;PMS_P1;PMS_P2;Temp;Humidity;BMP_temperature;BMP_pressure;BME280_temperature;BME280_humidity;BME280_pressure;Samples;Min_cycle;Max_cycle;Signal;HPM_P1;HPM_P2
2021/04/09 00:00:50;;;;;;;16.50;10.35;;;;;;;;;;5074929;28;20351;-56
2021/04/09 00:03:19;;;;;;;13.50;7.60;;;;;;;;;;5062302;28;20249;-51
2021/04/09 00:05:46;;;;;;;14.70;8.20;;;;;;;;;;5055427;28;20230;-52
2021/04/09 00:08:13;;;;;;;14.23;9.30;;;;;;;;;;5061838;28;20262;-51
2021/04/09 00:10:40;;;;;;;14.32;8.45;;;;;;;;;;5055332;28;20195;-54
2021/04/09 00:13:15;;;;;;;17.55;9.93;;;;;;;;;;5054947;28;20180;-50
2021/04/09 00:15:42;;;;;;;14.45;8.43;;;;;;;;;;5058118;28;20437;-55
2021/04/09 00:18:09;;;;;;;13.75;8.32;;;;;;;;;;5075532;28;20199;-52
2021/04/09 00:20:58;;;;;;;11.13;7.28;;;;;;;;;;5070031;28;20264;-48
2021/04/09 00:23:24;;;;;;;19.17;7.93;;;;;;;;;;5068117;28;20222;-54
2021/04/09 00:25:54;;;;;;;13.82;7.40;;;;;;;;;;5075518;28;20230;-50
2021/04/09 00:28:21;;;;;;;11.15;6.95;;;;;;;;;;5075408;28;20337;-51
2021/04/09 00:30:49;;;;;;;11.63;6.95;;;;;;;;;;5060792;28;20230;-52
2021/04/09 00:33:22;;;;;;;10.25;6.55;;;;;;;;;;5055648;28;20362;-51
2021/04/09 00:35:49;;;;;;;19.00;8.63;;;;;;;;;;5065232;28;20218;-54
2021/04/09 00:38:16;;;;;;;9.95;6.47;;;;;;;;;;5071044;28;20275;-54
2021/04/09 00:40:43;;;;;;;14.73;6.40;;;;;;;;;;5075691;28;20197;-49
2021/04/09 00:43:10;;;;;;;10.25;6.68;;;;;;;;;;5072037;28;20187;-55
2021/04/09 00:45:37;;;;;;;23.38;10.65;;;;;;;;;;5056847;28;20226;-49
2021/04/09 00:48:07;;;;;;;21.38;7.90;;;;;;;;;;5059218;28;20207;-52
2021/04/09 00:50:35;;;;;;;17.08;7.05;;;;;;;;;;5058620;28;20206;-54
2021/04/09 00:53:03;;;;;;;19.85;9.48;;;;;;;;;;5058993;28;20214;-54
2021/04/09 00:55:48;;;;;;;17.77;7.15;;;;;;;;;;5059267;28;20253;-56
2021/04/09 00:58:15;;;;;;;28.88;14.10;;;;;;;;;;5084417;28;20217;-52
2021/04/09 01:00:42;;;;;;;30.05;14.63;;;;;;;;;;5098789;28;20210;-51
2021/04/09 01:03:14;;;;;;;38.63;23.90;;;;;;;;;;5089406;28;20237;-51
2021/04/09 01:05:42;;;;;;;30.88;17.83;;;;;;;;;;5082966;28;20235;-53
2021/04/09 01:08:09;;;;;;;10.52;7.25;;;;;;;;;;5107101;28;20208;-53
2021/04/09 01:10:36;;;;;;;20.02;8.45;;;;;;;;;;5109088;28;20213;-58
2021/04/09 01:13:03;;;;;;;19.15;7.82;;;;;;;;;;5078325;28;20210;-55
2021/04/09 01:15:30;;;;;;;13.55;8.95;;;;;;;;;;5085002;28;20228;-51
2021/04/09 01:18:00;;;;;;;13.48;8.20;;;;;;;;;;5117890;28;20185;-54
2021/04/09 01:20:29;;;;;;;14.38;8.30;;;;;;;;;;5107487;28;20202;-47
2021/04/09 01:23:12;;;;;;;17.70;8.95;;;;;;;;;;5098864;28;20194;-50
2021/04/09 01:26:11;;;;;;;10.10;7.28;;;;;;;;;;5095519;28;20224;-54
2021/04/09 01:28:43;;;;;;;11.50;7.80;;;;;;;;;;5098431;28;20265;-55
2021/04/09 01:31:31;;;;;;;13.50;6.85;;;;;;;;;;5098585;28;20216;-53
2021/04/09 01:34:05;;;;;;;13.38;6.38;;;;;;;;;;5098531;28;20233;-52
2021/04/09 01:36:33;;;;;;;12.80;6.50;;;;;;;;;;5081421;28;20252;-50
2021/04/09 01:39:02;;;;;;;11.77;7.18;;;;;;;;;;5091037;28;20193;-53
2021/04/09 01:41:30;;;;;;;13.40;6.88;;;;;;;;;;5097950;28;20209;-54
2021/04/09 01:44:00;;;;;;;9.27;6.22;;;;;;;;;;5097631;28;20301;-54
2021/04/09 01:46:28;;;;;;;10.90;6.15;;;;;;;;;;5097384;28;20233;-49
2021/04/09 01:49:01;;;;;;;9.10;6.00;;;;;;;;;;5097390;28;20201;-52
2021/04/09 01:51:30;;;;;;;14.75;6.63;;;;;;;;;;5094508;28;20210;-50
2021/04/09 01:53:57;;;;;;;12.85;7.65;;;;;;;;;;5077620;28;20218;-53
2021/04/09 01:56:26;;;;;;;10.80;6.05;;;;;;;;;;5076661;28;20191;-50
2021/04/09 01:58:53;;;;;;;8.55;5.70;;;;;;;;;;5077640;28;20206;-46
2021/04/09 02:01:20;;;;;;;9.30;6.47;;;;;;;;;;5086272;28;20178;-47
2021/04/09 02:04:11;;;;;;;12.73;6.63;;;;;;;;;;5097798;28;20201;-57
2021/04/09 02:06:39;;;;;;;14.43;5.78;;;;;;;;;;5097568;28;20238;-53
2021/04/09 02:09:07;;;;;;;9.98;5.85;;;;;;;;;;5097175;28;20197;-46
2021/04/09 02:11:34;;;;;;;15.07;8.48;;;;;;;;;;5097037;28;20197;-52
2021/04/09 02:14:01;;;;;;;9.00;5.80;;;;;;;;;;5097221;28;20273;-49
2021/04/09 02:16:29;;;;;;;8.73;6.13;;;;;;;;;;5096997;28;20201;-46
2021/04/09 02:18:57;;;;;;;17.55;6.68;;;;;;;;;;5097276;28;20213;-49
2021/04/09 02:21:24;;;;;;;11.57;6.05;;;;;;;;;;5098077;28;20193;-52
2021/04/09 02:23:51;;;;;;;10.90;7.10;;;;;;;;;;5097412;28;20197;-48
2021/04/09 02:26:19;;;;;;;11.57;6.50;;;;;;;;;;5096942;28;20273;-49
2021/04/09 02:28:48;;;;;;;13.02;6.70;;;;;;;;;;5097820;28;20206;-55
2021/04/09 02:31:15;;;;;;;11.02;6.07;;;;;;;;;;5097555;28;20194;-55
2021/04/09 02:33:43;;;;;;;11.35;6.18;;;;;;;;;;5097763;28;20190;-45
2021/04/09 02:36:34;;;;;;;10.85;5.70;;;;;;;;;;5096978;28;20301;-50
2021/04/09 02:39:06;;;;;;;11.27;6.32;;;;;;;;;;5096579;28;20221;-51
2021/04/09 02:41:35;;;;;;;11.40;6.10;;;;;;;;;;5096882;28;20220;-49
2021/04/09 02:44:02;;;;;;;10.30;5.72;;;;;;;;;;5096937;28;20237;-47
2021/04/09 02:46:32;;;;;;;12.88;5.70;;;;;;;;;;5096969;28;20218;-58
2021/04/09 02:49:23;;;;;;;10.55;6.20;;;;;;;;;;5097018;28;20198;-50
2021/04/09 02:51:54;;;;;;;11.73;5.75;;;;;;;;;;5090783;28;20209;-54
2021/04/09 02:54:23;;;;;;;9.45;6.07;;;;;;;;;;5077010;28;20191;-49
2021/04/09 02:56:58;;;;;;;11.65;6.80;;;;;;;;;;5077563;28;20211;-54
2021/04/09 02:59:34;;;;;;;10.40;6.35;;;;;;;;;;5090877;28;20210;-57
2021/04/09 03:02:01;;;;;;;11.80;5.88;;;;;;;;;;5088736;28;20277;-54
2021/04/09 03:04:29;;;;;;;11.45;6.25;;;;;;;;;;5077339;28;20206;-50
2021/04/09 03:06:57;;;;;;;7.88;5.45;;;;;;;;;;5094985;28;20404;-52
2021/04/09 03:09:44;;;;;;;12.95;6.55;;;;;;;;;;5096953;28;20209;-46
2021/04/09 03:12:16;;;;;;;12.70;6.45;;;;;;;;;;5079609;28;20222;-49
2021/04/09 03:14:44;;;;;;;8.30;5.95;;;;;;;;;;5076144;28;20213;-50
2021/04/09 03:17:29;;;;;;;15.18;8.70;;;;;;;;;;5076472;28;20198;-51
2021/04/09 03:19:56;;;;;;;17.08;6.00;;;;;;;;;;5081938;28;20221;-48
2021/04/09 03:22:23;;;;;;;14.52;7.07;;;;;;;;;;5076817;28;20334;-53
2021/04/09 03:25:11;;;;;;;18.35;9.40;;;;;;;;;;5092212;28;20204;-54
2021/04/09 03:27:39;;;;;;;13.68;7.20;;;;;;;;;;5096798;28;20190;-47
2021/04/09 03:30:06;;;;;;;16.30;7.35;;;;;;;;;;5076830;28;20202;-53
2021/04/09 03:32:34;;;;;;;14.35;7.63;;;;;;;;;;5080104;28;20194;-49
2021/04/09 03:35:01;;;;;;;13.40;6.97;;;;;;;;;;5096973;28;20297;-54
2021/04/09 03:37:30;;;;;;;9.50;7.07;;;;;;;;;;5090387;28;20225;-54
2021/04/09 03:40:28;;;;;;;12.88;8.38;;;;;;;;;;5086492;28;20224;-47
2021/04/09 03:42:56;;;;;;;19.70;6.90;;;;;;;;;;5116043;28;20213;-59
2021/04/09 03:45:23;;;;;;;18.42;8.43;;;;;;;;;;5116464;28;20217;-58
2021/04/09 03:48:07;;;;;;;6.97;5.28;;;;;;;;;;5083155;28;20206;-52
2021/04/09 03:50:34;;;;;;;15.70;7.53;;;;;;;;;;5086246;28;20217;-54
2021/04/09 03:53:03;;;;;;;16.83;6.65;;;;;;;;;;5096514;28;20205;-47
2021/04/09 03:58:35;;;;;;;13.13;6.93;;;;;;;;;;5098369;28;20212;-53
2021/04/09 04:01:04;;;;;;;10.00;5.43;;;;;;;;;;5095874;28;20209;-55
2021/04/09 04:03:58;;;;;;;14.07;6.43;;;;;;;;;;5095888;28;20209;-54
2021/04/09 04:06:25;;;;;;;12.70;6.85;;;;;;;;;;5089050;28;20242;-52
2021/04/09 04:08:51;;;;;;;12.75;7.07;;;;;;;;;;5082358;28;20205;-57
2021/04/09 04:11:19;;;;;;;13.75;8.18;;;;;;;;;;5095656;28;20212;-52
2021/04/09 04:13:47;;;;;;;11.65;6.10;;;;;;;;;;5091448;28;20226;-55
2021/04/09 04:16:14;;;;;;;11.40;6.13;;;;;;;;;;5075090;28;20210;-55
2021/04/09 04:18:42;;;;;;;7.95;5.97;;;;;;;;;;5083685;28;20205;-57
2021/04/09 04:21:08;;;;;;;12.60;6.68;;;;;;;;;;5097963;28;20216;-55
2021/04/09 04:23:35;;;;;;;12.68;7.68;;;;;;;;;;5099446;28;20206;-53
2021/04/09 04:29:10;;;;;;;13.45;7.38;;;;;;;;;;5089447;28;20236;-51
2021/04/09 04:31:39;;;;;;;22.67;8.38;;;;;;;;;;5097487;28;20230;-56
2021/04/09 04:34:06;;;;;;;23.85;8.20;;;;;;;;;;5098116;28;20288;-54
2021/04/09 04:37:07;;;;;;;12.60;6.70;;;;;;;;;;5098977;28;20199;-52
2021/04/09 04:39:39;;;;;;;12.65;7.75;;;;;;;;;;5092554;28;20248;-52
2021/04/09 04:42:08;;;;;;;17.33;7.57;;;;;;;;;;5088897;28;20221;-54
2021/04/09 04:44:51;;;;;;;10.88;6.25;;;;;;;;;;5084628;28;20197;-52
2021/04/09 04:47:18;;;;;;;19.23;6.78;;;;;;;;;;5097572;28;20242;-55
2021/04/09 04:49:45;;;;;;;14.02;6.85;;;;;;;;;;5096835;28;20259;-58
2021/04/09 04:52:31;;;;;;;15.38;7.00;;;;;;;;;;5078009;28;20296;-51
2021/04/09 04:54:58;;;;;;;26.20;6.93;;;;;;;;;;5086776;28;20600;-52
2021/04/09 04:57:30;;;;;;;17.63;6.78;;;;;;;;;;5098206;28;20407;-53
2021/04/09 05:00:23;;;;;;;13.20;7.47;;;;;;;;;;5098436;28;20198;-54
2021/04/09 05:02:50;;;;;;;13.73;6.97;;;;;;;;;;5097796;28;20332;-56
2021/04/09 05:05:18;;;;;;;10.73;6.78;;;;;;;;;;5114279;28;20265;-52
2021/04/09 05:08:16;;;;;;;16.95;7.20;;;;;;;;;;5109065;28;20202;-57
2021/04/09 05:10:43;;;;;;;14.95;8.57;;;;;;;;;;5095569;28;20298;-59
2021/04/09 05:13:10;;;;;;;8.02;5.53;;;;;;;;;;5097757;28;20206;-53
2021/04/09 05:15:50;;;;;;;14.43;6.80;;;;;;;;;;5094515;28;20462;-54
2021/04/09 05:18:17;;;;;;;12.52;6.43;;;;;;;;;;5096543;28;20218;-54
2021/04/09 05:20:44;;;;;;;14.95;7.07;;;;;;;;;;5097472;28;20202;-51
2021/04/09 05:23:11;;;;;;;20.55;7.18;;;;;;;;;;5097898;28;20202;-52
2021/04/09 05:25:39;;;;;;;14.23;8.10;;;;;;;;;;5097594;28;20226;-55
2021/04/09 05:28:14;;;;;;;11.57;6.47;;;;;;;;;;5089474;28;20232;-54
2021/04/09 05:30:41;;;;;;;13.13;7.50;;;;;;;;;;5108123;28;20318;-49
2021/04/09 05:33:09;;;;;;;12.52;7.15;;;;;;;;;;5096421;28;20201;-51
2021/04/09 05:36:08;;;;;;;16.40;8.57;;;;;;;;;;5097341;28;20636;-48
2021/04/09 05:38:37;;;;;;;9.30;6.40;;;;;;;;;;5092292;28;20297;-54
2021/04/09 05:41:04;;;;;;;14.32;7.40;;;;;;;;;;5096518;28;20213;-52
2021/04/09 05:43:31;;;;;;;13.02;6.43;;;;;;;;;;5097465;28;20200;-51
2021/04/09 05:45:58;;;;;;;14.85;7.45;;;;;;;;;;5097115;28;20229;-57
2021/04/09 05:48:29;;;;;;;28.45;7.82;;;;;;;;;;5097761;28;20201;-50
2021/04/09 05:50:57;;;;;;;15.80;7.80;;;;;;;;;;5097288;28;20275;-58
2021/04/09 05:53:23;;;;;;;16.45;8.02;;;;;;;;;;5096462;28;20209;-54
2021/04/09 05:56:28;;;;;;;17.58;7.85;;;;;;;;;;5082165;28;20207;-50
2021/04/09 05:59:00;;;;;;;13.80;7.55;;;;;;;;;;5082649;28;20202;-53
2021/04/09 06:04:12;;;;;;;15.50;7.93;;;;;;;;;;5053249;28;20294;-56
2021/04/09 06:06:39;;;;;;;12.20;6.72;;;;;;;;;;5077276;28;20222;-48
2021/04/09 06:09:22;;;;;;;10.60;7.43;;;;;;;;;;5078312;28;20199;-55
2021/04/09 06:11:49;;;;;;;18.92;6.85;;;;;;;;;;5079495;28;20206;-51
2021/04/09 06:14:18;;;;;;;15.57;6.70;;;;;;;;;;5082556;28;20222;-53
2021/04/09 06:16:54;;;;;;;19.40;7.97;;;;;;;;;;5091313;28;20218;-53
2021/04/09 06:19:20;;;;;;;18.30;7.28;;;;;;;;;;5092376;28;20244;-55
2021/04/09 06:21:50;;;;;;;20.45;9.02;;;;;;;;;;5096223;28;20214;-54
2021/04/09 06:24:45;;;;;;;14.30;7.63;;;;;;;;;;5096822;28;20201;-53
2021/04/09 06:27:13;;;;;;;15.18;6.60;;;;;;;;;;5082012;28;20315;-56
2021/04/09 06:29:47;;;;;;;16.73;9.25;;;;;;;;;;5077314;28;20223;-53
2021/04/09 06:32:14;;;;;;;13.50;7.28;;;;;;;;;;5072206;28;20216;-48
2021/04/09 06:34:52;;;;;;;15.20;6.40;;;;;;;;;;5076093;28;20215;-52
2021/04/09 06:37:20;;;;;;;13.20;7.18;;;;;;;;;;5076700;28;20210;-53
2021/04/09 06:39:46;;;;;;;15.40;9.60;;;;;;;;;;5076200;28;20197;-56
2021/04/09 06:42:17;;;;;;;10.63;8.05;;;;;;;;;;5076054;28;20195;-53
2021/04/09 06:44:45;;;;;;;15.80;8.75;;;;;;;;;;5076516;28;20210;-56
2021/04/09 06:47:13;;;;;;;11.35;6.13;;;;;;;;;;5076093;28;20301;-55
2021/04/09 06:49:40;;;;;;;14.80;6.93;;;;;;;;;;5076000;28;20190;-53
2021/04/09 06:52:11;;;;;;;11.32;6.93;;;;;;;;;;5069458;28;20226;-57
2021/04/09 06:54:38;;;;;;;11.95;6.60;;;;;;;;;;5075110;28;20264;-57
2021/04/09 06:57:10;;;;;;;15.00;7.80;;;;;;;;;;5069357;28;20207;-54
2021/04/09 06:59:55;;;;;;;16.00;7.85;;;;;;;;;;5075108;28;20269;-55
2021/04/09 07:02:23;;;;;;;11.50;7.35;;;;;;;;;;5063169;28;20186;-48
2021/04/09 07:04:50;;;;;;;13.15;6.82;;;;;;;;;;5066853;28;20187;-52
2021/04/09 07:07:21;;;;;;;10.02;6.18;;;;;;;;;;5064261;28;20245;-52
2021/04/09 07:09:48;;;;;;;10.55;7.03;;;;;;;;;;5091684;28;20429;-53
2021/04/09 07:12:32;;;;;;;13.30;7.57;;;;;;;;;;5077354;28;20190;-55
2021/04/09 07:15:11;;;;;;;11.35;6.38;;;;;;;;;;5057268;28;20284;-51
2021/04/09 07:17:42;;;;;;;11.23;6.55;;;;;;;;;;5073920;28;20210;-56
2021/04/09 07:20:19;;;;;;;10.52;6.50;;;;;;;;;;5069357;28;20221;-53
2021/04/09 07:23:11;;;;;;;10.77;6.07;;;;;;;;;;5074610;28;20284;-52
2021/04/09 07:25:48;;;;;;;9.15;6.53;;;;;;;;;;5061088;28;20231;-56
2021/04/09 07:28:18;;;;;;;12.27;6.60;;;;;;;;;;5054288;28;20221;-50
2021/04/09 07:31:11;;;;;;;11.60;6.43;;;;;;;;;;5059135;28;20654;-55
2021/04/09 07:33:53;;;;;;;15.33;7.07;;;;;;;;;;5069176;28;20586;-54
2021/04/09 07:36:19;;;;;;;11.37;6.50;;;;;;;;;;5075552;28;20445;-55
2021/04/09 07:38:52;;;;;;;14.03;7.10;;;;;;;;;;5068106;28;20462;-49
2021/04/09 07:41:19;;;;;;;11.17;6.23;;;;;;;;;;5053936;28;20464;-51
2021/04/09 07:43:45;;;;;;;12.00;6.90;;;;;;;;;;5071424;28;20453;-51
2021/04/09 07:46:21;;;;;;;9.50;6.17;;;;;;;;;;5074565;28;20472;-51
2021/04/09 07:49:02;;;;;;;9.60;6.47;;;;;;;;;;5073825;28;20481;-54
2021/04/09 07:51:30;;;;;;;13.80;6.17;;;;;;;;;;5073263;28;20471;-56
2021/04/09 07:54:08;;;;;;;8.60;5.57;;;;;;;;;;5073963;28;20457;-50
2021/04/09 07:59:35;;;;;;;12.60;5.97;;;;;;;;;;5074088;28;20448;-57
2021/04/09 08:02:02;;;;;;;14.00;6.87;;;;;;;;;;5069775;28;20460;-56
2021/04/09 08:07:39;;;;;;;9.80;6.43;;;;;;;;;;5077317;28;20455;-58
2021/04/09 08:10:28;;;;;;;7.97;5.40;;;;;;;;;;5066596;28;20612;-56
2021/04/09 08:13:02;;;;;;;10.73;6.00;;;;;;;;;;5076703;28;20466;-55
2021/04/09 08:15:30;;;;;;;11.50;6.70;;;;;;;;;;5081746;28;20462;-55
2021/04/09 08:18:03;;;;;;;11.40;7.37;;;;;;;;;;5071903;28;20461;-57
2021/04/09 08:20:44;;;;;;;10.73;6.83;;;;;;;;;;5062393;28;20492;-59
2021/04/09 08:23:23;;;;;;;10.47;6.30;;;;;;;;;;5076488;28;20492;-49
2021/04/09 08:25:54;;;;;;;12.00;6.33;;;;;;;;;;5070855;28;20492;-55
2021/04/09 08:28:25;;;;;;;9.37;6.13;;;;;;;;;;5059962;28;20441;-51
2021/04/09 08:30:53;;;;;;;9.97;5.80;;;;;;;;;;5063117;28;20461;-56
2021/04/09 08:33:20;;;;;;;10.67;6.47;;;;;;;;;;5075991;28;20442;-50
2021/04/09 08:35:52;;;;;;;14.60;7.03;;;;;;;;;;5074808;28;20492;-58
2021/04/09 08:38:20;;;;;;;15.37;6.37;;;;;;;;;;5077608;28;20464;-52
2021/04/09 08:40:48;;;;;;;10.97;6.37;;;;;;;;;;5076814;28;20451;-57
2021/04/09 08:43:15;;;;;;;12.80;6.40;;;;;;;;;;5077244;28;20453;-54
2021/04/09 08:45:43;;;;;;;11.60;6.87;;;;;;;;;;5077003;28;20536;-56
2021/04/09 08:48:14;;;;;;;13.20;8.07;;;;;;;;;;5076847;28;20463;-54
2021/04/09 08:50:52;;;;;;;12.30;6.60;;;;;;;;;;5076916;28;20433;-51
2021/04/09 08:53:50;;;;;;;12.20;6.60;;;;;;;;;;5076684;28;20453;-55
2021/04/09 08:56:33;;;;;;;10.07;6.20;;;;;;;;;;5077087;28;20468;-50
2021/04/09 08:59:03;;;;;;;11.10;6.20;;;;;;;;;;5077302;28;20445;-57
2021/04/09 09:01:30;;;;;;;18.13;7.30;;;;;;;;;;5061877;28;20461;-52
2021/04/09 09:04:12;;;;;;;11.20;6.90;;;;;;;;;;5076898;28;20457;-48
2021/04/09 09:06:44;;;;;;;15.63;6.70;;;;;;;;;;5074392;28;20472;-55
2021/04/09 09:09:11;;;;;;;20.87;11.87;;;;;;;;;;5067681;28;20488;-55
2021/04/09 09:11:56;;;;;;;19.70;6.27;;;;;;;;;;5076480;28;20449;-50
2021/04/09 09:14:44;;;;;;;9.07;5.10;;;;;;;;;;5074457;28;20445;-51
2021/04/09 09:20:22;;;;;;;11.07;5.93;;;;;;;;;;5055237;28;20462;-53
2021/04/09 09:22:56;;;;;;;14.57;5.70;;;;;;;;;;5071918;28;20438;-52
2021/04/09 09:25:40;;;;;;;9.70;6.30;;;;;;;;;;5077251;28;20456;-59
2021/04/09 09:28:10;;;;;;;13.73;6.57;;;;;;;;;;5071604;28;20498;-53
2021/04/09 09:30:39;;;;;;;12.83;5.70;;;;;;;;;;5075504;28;20484;-53
2021/04/09 09:33:25;;;;;;;11.80;7.90;;;;;;;;;;5076708;28;20504;-48
2021/04/09 09:36:00;;;;;;;16.17;8.20;;;;;;;;;;5093727;28;20503;-54
2021/04/09 09:41:51;;;;;;;14.43;6.83;;;;;;;;;;5096379;28;20422;-56
2021/04/09 09:44:49;;;;;;;13.00;6.23;;;;;;;;;;5090122;28;20470;-55
2021/04/09 09:47:20;;;;;;;10.30;5.90;;;;;;;;;;5096549;28;20480;-55
2021/04/09 09:53:00;;;;;;;14.40;5.57;;;;;;;;;;5096606;28;20434;-48
2021/04/09 09:55:28;;;;;;;10.40;5.60;;;;;;;;;;5097210;28;20460;-56
2021/04/09 09:57:56;;;;;;;9.33;5.17;;;;;;;;;;5096053;28;20456;-56
2021/04/09 10:00:31;;;;;;;8.50;5.10;;;;;;;;;;5096000;28;20452;-56
2021/04/09 10:03:13;;;;;;;11.10;5.80;;;;;;;;;;5097693;28;20434;-55
2021/04/09 10:05:51;;;;;;;9.90;5.73;;;;;;;;;;5096073;28;20495;-49
2021/04/09 10:08:19;;;;;;;10.53;5.50;;;;;;;;;;5096007;28;20436;-55
2021/04/09 10:10:48;;;;;;;11.87;5.67;;;;;;;;;;5096636;28;20452;-54
2021/04/09 10:13:19;;;;;;;11.00;6.20;;;;;;;;;;5091709;28;20461;-53
2021/04/09 10:15:47;;;;;;;12.23;5.73;;;;;;;;;;5075652;28;20437;-53
2021/04/09 10:18:41;;;;;;;8.87;4.87;;;;;;;;;;5076768;28;20440;-52
2021/04/09 10:21:18;;;;;;;6.50;4.60;;;;;;;;;;5082591;28;20540;-54
2021/04/09 10:23:52;;;;;;;9.87;4.23;;;;;;;;;;5075461;28;20564;-53
2021/04/09 10:26:24;;;;;;;9.63;4.40;;;;;;;;;;5075989;28;20524;-50
2021/04/09 10:28:51;;;;;;;7.87;4.40;;;;;;;;;;5075986;28;20468;-48
2021/04/09 10:31:49;;;;;;;8.03;5.00;;;;;;;;;;5091992;28;20455;-57
2021/04/09 10:34:34;;;;;;;9.90;4.97;;;;;;;;;;5072758;28;20508;-55
2021/04/09 10:37:01;;;;;;;7.23;4.50;;;;;;;;;;5055965;28;20445;-50
2021/04/09 10:39:30;;;;;;;9.33;5.10;;;;;;;;;;5055191;28;20434;-53
2021/04/09 10:42:02;;;;;;;7.67;4.50;;;;;;;;;;5057333;28;20442;-49
2021/04/09 10:44:31;;;;;;;6.00;4.03;;;;;;;;;;5074167;28;20540;-58
2021/04/09 10:46:59;;;;;;;11.77;5.37;;;;;;;;;;5074665;28;20504;-54
2021/04/09 10:49:27;;;;;;;13.00;4.70;;;;;;;;;;5075748;28;20456;-53
2021/04/09 10:51:55;;;;;;;9.23;5.67;;;;;;;;;;5076028;28;20473;-54
2021/04/09 10:54:35;;;;;;;8.37;4.20;;;;;;;;;;5075941;28;20445;-58
2021/04/09 10:57:05;;;;;;;8.60;4.90;;;;;;;;;;5073505;28;20555;-54
2021/04/09 10:59:34;;;;;;;10.83;4.57;;;;;;;;;;5072037;28;20445;-51
2021/04/09 11:02:37;;;;;;;7.47;4.73;;;;;;;;;;5075238;28;20437;-58
2021/04/09 11:05:04;;;;;;;16.73;5.97;;;;;;;;;;5075466;28;20459;-48
2021/04/09 11:07:42;;;;;;;9.00;5.10;;;;;;;;;;5075182;28;20523;-54
2021/04/09 11:10:11;;;;;;;8.23;4.83;;;;;;;;;;5079272;28;20452;-52
2021/04/09 11:12:45;;;;;;;10.23;5.13;;;;;;;;;;5087266;28;20433;-52
2021/04/09 11:15:48;;;;;;;8.93;5.00;;;;;;;;;;5075639;28;20509;-54
2021/04/09 11:18:16;;;;;;;14.47;5.17;;;;;;;;;;5066861;28;20560;-56
2021/04/09 11:20:44;;;;;;;6.90;3.67;;;;;;;;;;5070678;28;20445;-57
2021/04/09 11:26:19;;;;;;;7.40;4.10;;;;;;;;;;5074404;28;20495;-57
2021/04/09 11:28:53;;;;;;;9.03;4.23;;;;;;;;;;5075062;28;20441;-56
2021/04/09 11:31:33;;;;;;;6.67;4.10;;;;;;;;;;5075529;28;20444;-53
2021/04/09 11:34:08;;;;;;;5.30;3.80;;;;;;;;;;5075213;28;20453;-56
2021/04/09 11:36:53;;;;;;;7.37;3.83;;;;;;;;;;5075642;28;20441;-57
2021/04/09 11:39:53;;;;;;;8.20;4.87;;;;;;;;;;5066106;28;20481;-56
2021/04/09 11:42:41;;;;;;;7.17;5.00;;;;;;;;;;5075467;28;20450;-53
2021/04/09 11:46:01;;;;;;;7.40;4.27;;;;;;;;;;5066359;28;20472;-48
2021/04/09 11:48:34;;;;;;;11.83;4.10;;;;;;;;;;5058122;28;20457;-53
2021/04/09 11:51:21;;;;;;;5.70;3.80;;;;;;;;;;5076069;28;20452;-52
2021/04/09 11:54:23;;;;;;;8.23;4.57;;;;;;;;;;5073394;28;20512;-51
2021/04/09 11:57:38;;;;;;;7.83;4.00;;;;;;;;;;5075250;28;20441;-49
2021/04/09 12:00:18;;;;;;;10.20;3.70;;;;;;;;;;4991588;28;20464;-53
2021/04/09 12:03:04;;;;;;;8.37;3.90;;;;;;;;;;5057958;28;20462;-47
2021/04/09 12:05:44;;;;;;;8.90;3.90;;;;;;;;;;5065425;28;20448;-59
2021/04/09 12:08:13;;;;;;;8.10;4.13;;;;;;;;;;5058974;28;20445;-54
2021/04/09 12:13:38;;;;;;;8.63;4.90;;;;;;;;;;5081912;28;20491;-52
2021/04/09 12:16:11;;;;;;;12.50;4.07;;;;;;;;;;5093955;28;20578;-59
2021/04/09 12:18:38;;;;;;;7.90;4.50;;;;;;;;;;5094661;28;20539;-52
2021/04/09 12:21:05;;;;;;;6.30;3.70;;;;;;;;;;5094809;28;20463;-53
2021/04/09 12:23:45;;;;;;;10.17;4.23;;;;;;;;;;5095707;28;20444;-50
2021/04/09 12:26:12;;;;;;;8.50;4.00;;;;;;;;;;5082194;28;20906;-53
2021/04/09 12:28:45;;;;;;;8.70;5.00;;;;;;;;;;5093605;28;20440;-57
2021/04/09 12:31:48;;;;;;;7.10;4.30;;;;;;;;;;5094336;28;20574;-53
2021/04/09 12:34:18;;;;;;;11.50;4.60;;;;;;;;;;5091952;28;20455;-52
2021/04/09 12:36:51;;;;;;;8.53;4.43;;;;;;;;;;5112929;28;20458;-56
2021/04/09 12:39:37;;;;;;;8.67;4.50;;;;;;;;;;5105688;28;20460;-57
2021/04/09 12:42:05;;;;;;;8.13;4.77;;;;;;;;;;5096410;28;20532;-58
2021/04/09 12:44:33;;;;;;;6.23;4.20;;;;;;;;;;5098150;28;20458;-55
2021/04/09 12:47:26;;;;;;;18.73;4.87;;;;;;;;;;5097981;28;20475;-52
2021/04/09 12:49:53;;;;;;;7.70;4.30;;;;;;;;;;5081237;28;20449;-55
2021/04/09 12:52:34;;;;;;;8.17;4.93;;;;;;;;;;5096172;28;20683;-53
2021/04/09 12:55:06;;;;;;;10.43;4.80;;;;;;;;;;5098315;28;20446;-48
2021/04/09 12:57:35;;;;;;;16.97;4.80;;;;;;;;;;5098197;28;20464;-58
2021/04/09 13:00:05;;;;;;;9.10;4.70;;;;;;;;;;5096651;28;20502;-56
2021/04/09 13:02:38;;;;;;;8.43;5.77;;;;;;;;;;5079267;28;20429;-52
2021/04/09 13:05:07;;;;;;;8.70;4.90;;;;;;;;;;5097222;28;20504;-54
2021/04/09 13:07:35;;;;;;;16.43;8.67;;;;;;;;;;5098446;28;20567;-57
2021/04/09 13:13:06;;;;;;;8.37;4.70;;;;;;;;;;5097743;28;20489;-51
2021/04/09 13:15:33;;;;;;;9.60;5.00;;;;;;;;;;5099402;28;20464;-49
2021/04/09 13:18:19;;;;;;;7.20;4.27;;;;;;;;;;5106538;28;20526;-57
2021/04/09 13:20:48;;;;;;;8.80;4.97;;;;;;;;;;5080825;28;20449;-57
2021/04/09 13:23:18;;;;;;;8.73;5.17;;;;;;;;;;5080982;28;20477;-50
2021/04/09 13:25:59;;;;;;;9.17;5.80;;;;;;;;;;5096447;28;20475;-53
2021/04/09 13:28:26;;;;;;;8.60;4.90;;;;;;;;;;5083035;28;20439;-53
2021/04/09 13:31:04;;;;;;;8.10;5.10;;;;;;;;;;5098902;28;20436;-58
2021/04/09 13:33:37;;;;;;;13.53;5.53;;;;;;;;;;5097877;28;20486;-56
2021/04/09 13:42:02;;;;;;;7.83;5.50;;;;;;;;;;5072799;28;20539;-52
2021/04/09 13:49:59;;;;;;;12.40;5.73;;;;;;;;;;5072273;28;20460;-53
2021/04/09 13:52:26;;;;;;;7.80;4.73;;;;;;;;;;5076905;28;20194;-48
2021/04/09 13:55:06;;;;;;;11.23;4.70;;;;;;;;;;5077594;28;20441;-49
2021/04/09 13:57:39;;;;;;;10.43;5.23;;;;;;;;;;5092753;28;20509;-53
2021/04/09 14:00:09;;;;;;;8.07;4.50;;;;;;;;;;5097972;28;20452;-52
2021/04/09 14:02:40;;;;;;;8.90;5.23;;;;;;;;;;5098169;28;20471;-56
2021/04/09 14:05:10;;;;;;;8.17;4.77;;;;;;;;;;5097924;28;20440;-56
2021/04/09 14:07:39;;;;;;;11.67;5.80;;;;;;;;;;5097692;28;20496;-50
2021/04/09 14:10:07;;;;;;;8.90;4.50;;;;;;;;;;5098151;28;20491;-54
2021/04/09 14:12:39;;;;;;;10.90;5.40;;;;;;;;;;5097386;28;20463;-56
2021/04/09 14:15:28;;;;;;;8.20;4.43;;;;;;;;;;5096492;28;20440;-53
2021/04/09 14:17:56;;;;;;;9.57;5.00;;;;;;;;;;5097189;28;20452;-61
2021/04/09 14:20:24;;;;;;;13.90;7.00;;;;;;;;;;5097343;28;20432;-53
2021/04/09 14:22:54;;;;;;;7.50;4.70;;;;;;;;;;5098062;28;20440;-56
2021/04/09 14:25:21;;;;;;;12.17;4.90;;;;;;;;;;5097821;28;20428;-57
2021/04/09 14:28:33;;;;;;;10.07;5.60;;;;;;;;;;5097760;28;20510;-51
2021/04/09 14:31:03;;;;;;;13.00;6.23;;;;;;;;;;5097984;28;20448;-48
2021/04/09 14:33:38;;;;;;;10.40;4.77;;;;;;;;;;5097202;28;20460;-52
2021/04/09 14:36:10;;;;;;;14.23;4.80;;;;;;;;;;5097862;28;20487;-50
2021/04/09 14:41:32;;;;;;;10.57;6.13;;;;;;;;;;5075356;28;20495;-55
2021/04/09 14:44:01;;;;;;;9.70;5.73;;;;;;;;;;5094890;28;20515;-62
2021/04/09 14:46:31;;;;;;;9.43;5.87;;;;;;;;;;5091846;28;20491;-57
2021/04/09 14:48:57;;;;;;;8.90;5.00;;;;;;;;;;5077084;28;20453;-49
2021/04/09 14:51:25;;;;;;;8.50;4.93;;;;;;;;;;5080416;28;20474;-53
2021/04/09 14:54:18;;;;;;;8.93;5.17;;;;;;;;;;5096516;28;20452;-55
2021/04/09 14:56:45;;;;;;;8.83;5.07;;;;;;;;;;5096716;28;20562;-55
2021/04/09 14:59:13;;;;;;;10.37;5.83;;;;;;;;;;5096888;28;20520;-50
2021/04/09 15:01:43;;;;;;;13.47;6.23;;;;;;;;;;5077244;28;20430;-54
2021/04/09 15:04:10;;;;;;;13.60;6.30;;;;;;;;;;5076598;28;20486;-53
2021/04/09 15:06:40;;;;;;;10.03;5.30;;;;;;;;;;5076822;28;20499;-51
2021/04/09 15:09:23;;;;;;;7.43;5.70;;;;;;;;;;5078461;28;20528;-50
2021/04/09 15:12:12;;;;;;;7.70;5.27;;;;;;;;;;5097553;28;20444;-48
2021/04/09 15:14:45;;;;;;;10.40;6.20;;;;;;;;;;5077446;28;20472;-49
2021/04/09 15:17:43;;;;;;;8.97;5.60;;;;;;;;;;5076794;28;20640;-51
2021/04/09 15:20:23;;;;;;;13.83;6.43;;;;;;;;;;5075414;28;20491;-56
2021/04/09 15:23:14;;;;;;;9.63;5.40;;;;;;;;;;5076589;28;20475;-54
2021/04/09 15:25:41;;;;;;;10.13;5.03;;;;;;;;;;5076405;28;20445;-57
2021/04/09 15:28:18;;;;;;;10.67;6.13;;;;;;;;;;5076200;28;20445;-57
2021/04/09 15:34:19;;;;;;;14.60;6.17;;;;;;;;;;5069532;28;20453;-56
2021/04/09 15:36:57;;;;;;;8.13;5.33;;;;;;;;;;5071043;28;20457;-53
2021/04/09 15:39:24;;;;;;;11.07;6.07;;;;;;;;;;5068030;28;20484;-49
2021/04/09 15:42:00;;;;;;;14.90;7.37;;;;;;;;;;5069993;28;20491;-49
2021/04/09 15:44:30;;;;;;;9.17;5.50;;;;;;;;;;5076811;28;20437;-55
2021/04/09 15:47:23;;;;;;;7.80;4.50;;;;;;;;;;5076648;28;20507;-49
2021/04/09 15:49:51;;;;;;;9.93;5.40;;;;;;;;;;5077040;28;20448;-53
2021/04/09 15:52:22;;;;;;;8.27;5.93;;;;;;;;;;5076142;28;20465;-52
2021/04/09 15:55:02;;;;;;;12.10;6.23;;;;;;;;;;5076390;28;20481;-55
2021/04/09 15:57:29;;;;;;;14.33;7.40;;;;;;;;;;5065836;28;20465;-52
2021/04/09 15:59:57;;;;;;;14.00;6.10;;;;;;;;;;5074271;28;20445;-46
2021/04/09 16:02:51;;;;;;;8.73;5.27;;;;;;;;;;5076344;28;20461;-54